sensor_id;sensor_type;location;lat;lon;timestamp;P1;durP1;ratioP1;P2;durP2;ratioP2
53281;SDS011;39167;52.794;6.892;2022-11-13T00:00:57;13.90;;;9.70;;
53281;SDS011;39167;52.794;6.892;2022-11-13T00:03:31;16.42;;;10.50;;
53281;SDS011;39167;52.794;6.892;2022-11-13T00:05:57;20.35;;;10.90;;
53281;SDS011;39167;52.794;6.892;2022-11-13T00:08:26;17.10;;;11.18;;
53281;SDS011;39167;52.794;6.892;2022-11-13T00:10:58;17.83;;;11.05;;
53281;SDS011;39167;52.794;6.892;2022-11-13T00:13:25;16.02;;;11.13;;
53281;SDS011;39167;52.794;6.892;2022-11-13T00:16:01;16.40;;;11.35;;
53281;SDS011;39167;52.794;6.892;2022-11-13T00:18:28;18.92;;;12.63;;
53281;SDS011;39167;52.794;6.892;2022-11-13T00:20:55;18.30;;;12.95;;
53281;SDS011;39167;52.794;6.892;2022-11-13T00:23:22;15.20;;;11.10;;
53281;SDS011;39167;52.794;6.892;2022-11-13T00:25:47;16.60;;;11.68;;
53281;SDS011;39167;52.794;6.892;2022-11-13T00:28:13;17.25;;;11.52;;
53281;SDS011;39167;52.794;6.892;2022-11-13T00:30:39;17.17;;;11.00;;
53281;SDS011;39167;52.794;6.892;2022-11-13T00:33:05;21.35;;;11.85;;
53281;SDS011;39167;52.794;6.892;2022-11-13T00:35:31;16.80;;;11.43;;
53281;SDS011;39167;52.794;6.892;2022-11-13T00:37:57;18.85;;;11.52;;
53281;SDS011;39167;52.794;6.892;2022-11-13T00:40:23;17.20;;;10.77;;
53281;SDS011;39167;52.794;6.892;2022-11-13T00:42:49;16.17;;;10.73;;
53281;SDS011;39167;52.794;6.892;2022-11-13T00:45:15;17.80;;;11.30;;
53281;SDS011;39167;52.794;6.892;2022-11-13T00:47:40;16.73;;;11.23;;
53281;SDS011;39167;52.794;6.892;2022-11-13T00:50:06;16.55;;;11.68;;
53281;SDS011;39167;52.794;6.892;2022-11-13T00:52:32;14.98;;;11.00;;
53281;SDS011;39167;52.794;6.892;2022-11-13T00:54:57;19.13;;;11.90;;
53281;SDS011;39167;52.794;6.892;2022-11-13T00:57:23;18.85;;;11.70;;
53281;SDS011;39167;52.794;6.892;2022-11-13T00:59:49;17.70;;;11.68;;
53281;SDS011;39167;52.794;6.892;2022-11-13T01:02:14;19.13;;;13.27;;
53281;SDS011;39167;52.794;6.892;2022-11-13T01:04:41;19.02;;;12.38;;
53281;SDS011;39167;52.794;6.892;2022-11-13T01:07:06;19.13;;;13.38;;
53281;SDS011;39167;52.794;6.892;2022-11-13T01:09:32;20.10;;;14.30;;
53281;SDS011;39167;52.794;6.892;2022-11-13T01:11:58;26.70;;;15.15;;
53281;SDS011;39167;52.794;6.892;2022-11-13T01:14:24;24.17;;;15.10;;
53281;SDS011;39167;52.794;6.892;2022-11-13T01:16:49;20.55;;;14.85;;
53281;SDS011;39167;52.794;6.892;2022-11-13T01:19:15;25.00;;;14.85;;
53281;SDS011;39167;52.794;6.892;2022-11-13T01:21:41;22.80;;;15.77;;
53281;SDS011;39167;52.794;6.892;2022-11-13T01:24:07;20.98;;;15.38;;
53281;SDS011;39167;52.794;6.892;2022-11-13T01:26:33;20.58;;;14.38;;
53281;SDS011;39167;52.794;6.892;2022-11-13T01:28:58;24.17;;;16.55;;
53281;SDS011;39167;52.794;6.892;2022-11-13T01:31:27;24.58;;;15.60;;
53281;SDS011;39167;52.794;6.892;2022-11-13T01:33:54;20.92;;;14.63;;
53281;SDS011;39167;52.794;6.892;2022-11-13T01:36:27;22.17;;;15.00;;
53281;SDS011;39167;52.794;6.892;2022-11-13T01:38:53;22.08;;;15.23;;
53281;SDS011;39167;52.794;6.892;2022-11-13T01:41:30;21.65;;;15.57;;
53281;SDS011;39167;52.794;6.892;2022-11-13T01:43:58;20.60;;;14.90;;
53281;SDS011;39167;52.794;6.892;2022-11-13T01:46:25;19.75;;;14.18;;
53281;SDS011;39167;52.794;6.892;2022-11-13T01:48:57;20.95;;;15.15;;
53281;SDS011;39167;52.794;6.892;2022-11-13T01:51:29;22.15;;;14.95;;
53281;SDS011;39167;52.794;6.892;2022-11-13T01:54:01;20.33;;;15.73;;
53281;SDS011;39167;52.794;6.892;2022-11-13T01:56:29;22.85;;;14.68;;
53281;SDS011;39167;52.794;6.892;2022-11-13T01:59:01;20.45;;;13.85;;
53281;SDS011;39167;52.794;6.892;2022-11-13T02:01:32;19.75;;;14.82;;
53281;SDS011;39167;52.794;6.892;2022-11-13T02:03:58;20.10;;;13.82;;
53281;SDS011;39167;52.794;6.892;2022-11-13T02:06:24;23.42;;;14.60;;
53281;SDS011;39167;52.794;6.892;2022-11-13T02:08:54;22.58;;;14.70;;
53281;SDS011;39167;52.794;6.892;2022-11-13T02:11:20;21.52;;;13.85;;
53281;SDS011;39167;52.794;6.892;2022-11-13T02:13:46;20.52;;;13.68;;
53281;SDS011;39167;52.794;6.892;2022-11-13T02:16:12;20.90;;;15.18;;
53281;SDS011;39167;52.794;6.892;2022-11-13T02:18:40;22.92;;;14.88;;
53281;SDS011;39167;52.794;6.892;2022-11-13T02:26:06;20.92;;;13.60;;
53281;SDS011;39167;52.794;6.892;2022-11-13T02:28:33;19.20;;;14.20;;
53281;SDS011;39167;52.794;6.892;2022-11-13T02:31:09;20.55;;;14.52;;
53281;SDS011;39167;52.794;6.892;2022-11-13T02:33:36;19.20;;;14.27;;
53281;SDS011;39167;52.794;6.892;2022-11-13T02:36:02;19.80;;;13.85;;
53281;SDS011;39167;52.794;6.892;2022-11-13T02:38:30;23.58;;;14.35;;
53281;SDS011;39167;52.794;6.892;2022-11-13T02:40:58;22.83;;;15.02;;
53281;SDS011;39167;52.794;6.892;2022-11-13T02:43:24;22.50;;;15.40;;
53281;SDS011;39167;52.794;6.892;2022-11-13T02:45:50;19.58;;;13.75;;
53281;SDS011;39167;52.794;6.892;2022-11-13T02:48:16;19.50;;;13.30;;
53281;SDS011;39167;52.794;6.892;2022-11-13T02:50:42;22.85;;;15.00;;
53281;SDS011;39167;52.794;6.892;2022-11-13T02:53:08;21.92;;;14.98;;
53281;SDS011;39167;52.794;6.892;2022-11-13T02:55:33;19.33;;;13.90;;
53281;SDS011;39167;52.794;6.892;2022-11-13T02:57:59;23.70;;;14.55;;
53281;SDS011;39167;52.794;6.892;2022-11-13T03:00:25;22.52;;;14.95;;
53281;SDS011;39167;52.794;6.892;2022-11-13T03:02:51;23.20;;;15.27;;
53281;SDS011;39167;52.794;6.892;2022-11-13T03:05:17;20.75;;;12.95;;
53281;SDS011;39167;52.794;6.892;2022-11-13T03:07:43;19.05;;;13.63;;
53281;SDS011;39167;52.794;6.892;2022-11-13T03:10:09;21.50;;;14.02;;
53281;SDS011;39167;52.794;6.892;2022-11-13T03:12:35;20.83;;;14.30;;
53281;SDS011;39167;52.794;6.892;2022-11-13T03:15:01;20.08;;;13.98;;
53281;SDS011;39167;52.794;6.892;2022-11-13T03:17:29;21.30;;;13.38;;
53281;SDS011;39167;52.794;6.892;2022-11-13T03:19:56;19.70;;;14.38;;
53281;SDS011;39167;52.794;6.892;2022-11-13T03:22:22;21.60;;;14.57;;
53281;SDS011;39167;52.794;6.892;2022-11-13T03:24:47;18.15;;;13.40;;
53281;SDS011;39167;52.794;6.892;2022-11-13T03:27:13;19.48;;;13.70;;
53281;SDS011;39167;52.794;6.892;2022-11-13T03:29:39;26.75;;;15.38;;
53281;SDS011;39167;52.794;6.892;2022-11-13T03:32:04;21.08;;;14.15;;
53281;SDS011;39167;52.794;6.892;2022-11-13T03:34:31;18.83;;;13.23;;
53281;SDS011;39167;52.794;6.892;2022-11-13T03:36:56;18.67;;;13.23;;
53281;SDS011;39167;52.794;6.892;2022-11-13T03:39:22;17.65;;;13.70;;
53281;SDS011;39167;52.794;6.892;2022-11-13T03:41:48;19.77;;;13.88;;
53281;SDS011;39167;52.794;6.892;2022-11-13T03:44:13;19.45;;;13.40;;
53281;SDS011;39167;52.794;6.892;2022-11-13T03:46:39;20.52;;;13.98;;
53281;SDS011;39167;52.794;6.892;2022-11-13T03:49:05;19.85;;;14.05;;
53281;SDS011;39167;52.794;6.892;2022-11-13T03:51:30;22.20;;;13.88;;
53281;SDS011;39167;52.794;6.892;2022-11-13T03:53:56;17.83;;;13.23;;
53281;SDS011;39167;52.794;6.892;2022-11-13T03:56:21;18.65;;;12.70;;
53281;SDS011;39167;52.794;6.892;2022-11-13T03:58:47;19.20;;;13.40;;
53281;SDS011;39167;52.794;6.892;2022-11-13T04:01:13;20.58;;;14.68;;
53281;SDS011;39167;52.794;6.892;2022-11-13T04:03:38;20.90;;;13.60;;
53281;SDS011;39167;52.794;6.892;2022-11-13T04:06:04;21.70;;;13.18;;
53281;SDS011;39167;52.794;6.892;2022-11-13T04:08:30;18.38;;;13.38;;
53281;SDS011;39167;52.794;6.892;2022-11-13T04:11:04;18.90;;;13.45;;
53281;SDS011;39167;52.794;6.892;2022-11-13T04:13:34;19.75;;;14.30;;
53281;SDS011;39167;52.794;6.892;2022-11-13T04:15:59;18.27;;;12.90;;
53281;SDS011;39167;52.794;6.892;2022-11-13T04:18:25;19.58;;;13.85;;
53281;SDS011;39167;52.794;6.892;2022-11-13T04:20:51;23.13;;;14.43;;
53281;SDS011;39167;52.794;6.892;2022-11-13T04:23:16;19.00;;;13.50;;
53281;SDS011;39167;52.794;6.892;2022-11-13T04:25:42;19.38;;;13.52;;
53281;SDS011;39167;52.794;6.892;2022-11-13T04:28:09;17.70;;;12.50;;
53281;SDS011;39167;52.794;6.892;2022-11-13T04:30:35;18.70;;;13.77;;
53281;SDS011;39167;52.794;6.892;2022-11-13T04:33:00;19.00;;;13.50;;
53281;SDS011;39167;52.794;6.892;2022-11-13T04:35:26;17.67;;;12.55;;
53281;SDS011;39167;52.794;6.892;2022-11-13T04:37:52;19.50;;;12.80;;
53281;SDS011;39167;52.794;6.892;2022-11-13T04:40:18;18.58;;;13.48;;
53281;SDS011;39167;52.794;6.892;2022-11-13T04:42:44;20.35;;;12.45;;
53281;SDS011;39167;52.794;6.892;2022-11-13T04:47:45;18.08;;;12.85;;
53281;SDS011;39167;52.794;6.892;2022-11-13T04:50:11;19.45;;;13.43;;
53281;SDS011;39167;52.794;6.892;2022-11-13T04:52:37;19.08;;;12.82;;
53281;SDS011;39167;52.794;6.892;2022-11-13T04:55:04;20.30;;;13.40;;
53281;SDS011;39167;52.794;6.892;2022-11-13T04:57:30;17.88;;;12.98;;
53281;SDS011;39167;52.794;6.892;2022-11-13T04:59:56;18.20;;;12.82;;
53281;SDS011;39167;52.794;6.892;2022-11-13T05:02:22;16.88;;;12.15;;
53281;SDS011;39167;52.794;6.892;2022-11-13T05:04:48;17.40;;;12.70;;
53281;SDS011;39167;52.794;6.892;2022-11-13T05:07:13;18.80;;;12.70;;
53281;SDS011;39167;52.794;6.892;2022-11-13T05:09:39;16.48;;;12.38;;
53281;SDS011;39167;52.794;6.892;2022-11-13T05:12:05;19.52;;;12.68;;
53281;SDS011;39167;52.794;6.892;2022-11-13T05:14:38;15.63;;;11.90;;
53281;SDS011;39167;52.794;6.892;2022-11-13T05:17:05;19.17;;;12.60;;
53281;SDS011;39167;52.794;6.892;2022-11-13T05:19:31;16.67;;;12.05;;
53281;SDS011;39167;52.794;6.892;2022-11-13T05:21:57;20.58;;;11.77;;
53281;SDS011;39167;52.794;6.892;2022-11-13T05:24:24;15.73;;;11.60;;
53281;SDS011;39167;52.794;6.892;2022-11-13T05:26:50;17.33;;;12.32;;
53281;SDS011;39167;52.794;6.892;2022-11-13T05:29:16;19.80;;;12.95;;
53281;SDS011;39167;52.794;6.892;2022-11-13T05:31:42;18.08;;;12.32;;
53281;SDS011;39167;52.794;6.892;2022-11-13T05:34:07;16.42;;;12.35;;
53281;SDS011;39167;52.794;6.892;2022-11-13T05:36:33;16.35;;;11.15;;
53281;SDS011;39167;52.794;6.892;2022-11-13T05:38:59;18.60;;;12.00;;
53281;SDS011;39167;52.794;6.892;2022-11-13T05:41:25;18.20;;;12.55;;
53281;SDS011;39167;52.794;6.892;2022-11-13T05:43:51;15.55;;;12.20;;
53281;SDS011;39167;52.794;6.892;2022-11-13T05:46:18;18.20;;;12.73;;
53281;SDS011;39167;52.794;6.892;2022-11-13T05:48:46;18.38;;;12.27;;
53281;SDS011;39167;52.794;6.892;2022-11-13T05:51:16;18.45;;;12.85;;
53281;SDS011;39167;52.794;6.892;2022-11-13T05:53:44;15.63;;;10.82;;
53281;SDS011;39167;52.794;6.892;2022-11-13T05:56:10;18.05;;;11.48;;
53281;SDS011;39167;52.794;6.892;2022-11-13T05:58:37;16.67;;;11.15;;
53281;SDS011;39167;52.794;6.892;2022-11-13T06:01:24;16.00;;;11.63;;
53281;SDS011;39167;52.794;6.892;2022-11-13T06:03:51;17.20;;;12.23;;
53281;SDS011;39167;52.794;6.892;2022-11-13T06:06:19;15.55;;;11.88;;
53281;SDS011;39167;52.794;6.892;2022-11-13T06:08:46;17.65;;;11.43;;
53281;SDS011;39167;52.794;6.892;2022-11-13T06:11:14;18.10;;;11.85;;
53281;SDS011;39167;52.794;6.892;2022-11-13T06:13:41;17.05;;;11.98;;
53281;SDS011;39167;52.794;6.892;2022-11-13T06:16:11;19.70;;;13.38;;
53281;SDS011;39167;52.794;6.892;2022-11-13T06:18:42;18.65;;;12.20;;
53281;SDS011;39167;52.794;6.892;2022-11-13T06:21:12;18.10;;;11.98;;
53281;SDS011;39167;52.794;6.892;2022-11-13T06:23:44;20.13;;;12.73;;
53281;SDS011;39167;52.794;6.892;2022-11-13T06:26:11;19.20;;;12.65;;
53281;SDS011;39167;52.794;6.892;2022-11-13T06:28:38;19.83;;;13.10;;
53281;SDS011;39167;52.794;6.892;2022-11-13T06:31:05;18.75;;;13.80;;
53281;SDS011;39167;52.794;6.892;2022-11-13T06:33:33;17.67;;;12.75;;
53281;SDS011;39167;52.794;6.892;2022-11-13T06:36:00;18.08;;;12.30;;
53281;SDS011;39167;52.794;6.892;2022-11-13T06:38:33;17.50;;;11.93;;
53281;SDS011;39167;52.794;6.892;2022-11-13T06:41:00;17.77;;;13.10;;
53281;SDS011;39167;52.794;6.892;2022-11-13T06:43:26;18.40;;;13.32;;
53281;SDS011;39167;52.794;6.892;2022-11-13T06:45:53;18.20;;;12.82;;
53281;SDS011;39167;52.794;6.892;2022-11-13T06:48:19;19.58;;;12.55;;
53281;SDS011;39167;52.794;6.892;2022-11-13T06:50:44;21.10;;;13.05;;
53281;SDS011;39167;52.794;6.892;2022-11-13T06:53:10;18.98;;;12.05;;
53281;SDS011;39167;52.794;6.892;2022-11-13T06:55:41;17.02;;;12.15;;
53281;SDS011;39167;52.794;6.892;2022-11-13T06:58:09;18.08;;;12.10;;
53281;SDS011;39167;52.794;6.892;2022-11-13T07:00:34;16.80;;;12.50;;
53281;SDS011;39167;52.794;6.892;2022-11-13T07:03:00;17.20;;;12.32;;
53281;SDS011;39167;52.794;6.892;2022-11-13T07:05:26;17.80;;;11.98;;
53281;SDS011;39167;52.794;6.892;2022-11-13T07:07:51;18.60;;;12.75;;
53281;SDS011;39167;52.794;6.892;2022-11-13T07:10:17;16.02;;;11.68;;
53281;SDS011;39167;52.794;6.892;2022-11-13T07:12:43;16.98;;;11.93;;
53281;SDS011;39167;52.794;6.892;2022-11-13T07:15:08;16.65;;;11.55;;
53281;SDS011;39167;52.794;6.892;2022-11-13T07:17:34;17.35;;;11.45;;
53281;SDS011;39167;52.794;6.892;2022-11-13T07:20:00;17.33;;;12.02;;
53281;SDS011;39167;52.794;6.892;2022-11-13T07:22:27;17.75;;;11.68;;
53281;SDS011;39167;52.794;6.892;2022-11-13T07:24:54;18.50;;;12.32;;
53281;SDS011;39167;52.794;6.892;2022-11-13T07:27:20;16.58;;;11.90;;
53281;SDS011;39167;52.794;6.892;2022-11-13T07:29:46;15.07;;;11.02;;
53281;SDS011;39167;52.794;6.892;2022-11-13T07:32:12;17.17;;;11.98;;
53281;SDS011;39167;52.794;6.892;2022-11-13T07:34:37;14.98;;;11.30;;
53281;SDS011;39167;52.794;6.892;2022-11-13T07:37:03;17.67;;;11.20;;
53281;SDS011;39167;52.794;6.892;2022-11-13T07:39:31;16.75;;;11.23;;
53281;SDS011;39167;52.794;6.892;2022-11-13T07:41:56;15.50;;;12.60;;
53281;SDS011;39167;52.794;6.892;2022-11-13T07:44:22;15.98;;;10.63;;
53281;SDS011;39167;52.794;6.892;2022-11-13T07:46:48;16.67;;;11.75;;
53281;SDS011;39167;52.794;6.892;2022-11-13T07:49:13;17.30;;;12.40;;
53281;SDS011;39167;52.794;6.892;2022-11-13T07:51:39;18.02;;;11.60;;
53281;SDS011;39167;52.794;6.892;2022-11-13T07:54:05;16.55;;;12.13;;
53281;SDS011;39167;52.794;6.892;2022-11-13T07:56:31;19.10;;;12.70;;
53281;SDS011;39167;52.794;6.892;2022-11-13T07:58:56;18.50;;;12.85;;
53281;SDS011;39167;52.794;6.892;2022-11-13T08:01:22;16.75;;;11.68;;
53281;SDS011;39167;52.794;6.892;2022-11-13T08:03:48;14.85;;;11.07;;
53281;SDS011;39167;52.794;6.892;2022-11-13T08:06:13;18.17;;;12.35;;
53281;SDS011;39167;52.794;6.892;2022-11-13T08:08:39;18.17;;;12.63;;
53281;SDS011;39167;52.794;6.892;2022-11-13T08:11:05;20.67;;;13.80;;
53281;SDS011;39167;52.794;6.892;2022-11-13T08:13:33;15.15;;;11.30;;
53281;SDS011;39167;52.794;6.892;2022-11-13T08:16:00;16.75;;;12.13;;
53281;SDS011;39167;52.794;6.892;2022-11-13T08:18:27;19.05;;;13.05;;
53281;SDS011;39167;52.794;6.892;2022-11-13T08:20:53;14.25;;;11.10;;
53281;SDS011;39167;52.794;6.892;2022-11-13T08:23:19;19.52;;;13.07;;
53281;SDS011;39167;52.794;6.892;2022-11-13T08:25:45;18.33;;;12.88;;
53281;SDS011;39167;52.794;6.892;2022-11-13T08:28:11;17.13;;;12.25;;
53281;SDS011;39167;52.794;6.892;2022-11-13T08:30:37;16.65;;;11.13;;
53281;SDS011;39167;52.794;6.892;2022-11-13T08:33:03;17.05;;;12.00;;
53281;SDS011;39167;52.794;6.892;2022-11-13T08:35:29;14.88;;;11.57;;
53281;SDS011;39167;52.794;6.892;2022-11-13T08:38:01;17.80;;;11.45;;
53281;SDS011;39167;52.794;6.892;2022-11-13T08:40:31;16.88;;;12.18;;
53281;SDS011;39167;52.794;6.892;2022-11-13T08:42:57;19.50;;;13.40;;
53281;SDS011;39167;52.794;6.892;2022-11-13T08:45:24;17.73;;;13.25;;
53281;SDS011;39167;52.794;6.892;2022-11-13T08:47:50;22.60;;;13.93;;
53281;SDS011;39167;52.794;6.892;2022-11-13T08:50:15;18.33;;;12.82;;
53281;SDS011;39167;52.794;6.892;2022-11-13T08:52:41;17.40;;;12.65;;
53281;SDS011;39167;52.794;6.892;2022-11-13T08:55:07;19.05;;;13.23;;
53281;SDS011;39167;52.794;6.892;2022-11-13T08:57:32;18.33;;;13.48;;
53281;SDS011;39167;52.794;6.892;2022-11-13T08:59:58;18.13;;;12.82;;
53281;SDS011;39167;52.794;6.892;2022-11-13T09:02:24;18.35;;;13.50;;
53281;SDS011;39167;52.794;6.892;2022-11-13T09:04:49;18.27;;;13.27;;
53281;SDS011;39167;52.794;6.892;2022-11-13T09:07:15;18.15;;;12.77;;
53281;SDS011;39167;52.794;6.892;2022-11-13T09:09:41;17.00;;;12.63;;
53281;SDS011;39167;52.794;6.892;2022-11-13T09:12:07;18.58;;;13.40;;
53281;SDS011;39167;52.794;6.892;2022-11-13T09:14:32;18.80;;;12.98;;
53281;SDS011;39167;52.794;6.892;2022-11-13T09:16:59;20.95;;;13.40;;
53281;SDS011;39167;52.794;6.892;2022-11-13T09:19:25;18.20;;;12.25;;
53281;SDS011;39167;52.794;6.892;2022-11-13T09:21:51;19.85;;;13.40;;
53281;SDS011;39167;52.794;6.892;2022-11-13T09:24:17;17.67;;;12.82;;
53281;SDS011;39167;52.794;6.892;2022-11-13T09:26:43;17.10;;;13.02;;
53281;SDS011;39167;52.794;6.892;2022-11-13T09:29:09;17.85;;;12.90;;
53281;SDS011;39167;52.794;6.892;2022-11-13T09:31:34;16.42;;;12.65;;
53281;SDS011;39167;52.794;6.892;2022-11-13T09:34:02;17.48;;;12.73;;
53281;SDS011;39167;52.794;6.892;2022-11-13T09:36:28;16.23;;;12.23;;
53281;SDS011;39167;52.794;6.892;2022-11-13T09:38:53;17.08;;;12.70;;
53281;SDS011;39167;52.794;6.892;2022-11-13T09:41:24;17.52;;;12.13;;
53281;SDS011;39167;52.794;6.892;2022-11-13T09:44:03;20.30;;;12.85;;
53281;SDS011;39167;52.794;6.892;2022-11-13T09:46:51;16.88;;;12.02;;
53281;SDS011;39167;52.794;6.892;2022-11-13T09:49:40;17.60;;;11.55;;
53281;SDS011;39167;52.794;6.892;2022-11-13T09:52:14;18.85;;;11.98;;
53281;SDS011;39167;52.794;6.892;2022-11-13T09:54:43;17.65;;;12.57;;
53281;SDS011;39167;52.794;6.892;2022-11-13T09:57:24;16.08;;;11.50;;
53281;SDS011;39167;52.794;6.892;2022-11-13T10:05:33;15.70;;;11.07;;
53281;SDS011;39167;52.794;6.892;2022-11-13T10:08:16;17.63;;;12.57;;
53281;SDS011;39167;52.794;6.892;2022-11-13T10:16:35;14.48;;;11.52;;
53281;SDS011;39167;52.794;6.892;2022-11-13T10:21:51;12.90;;;10.45;;
53281;SDS011;39167;52.794;6.892;2022-11-13T10:24:28;14.45;;;10.32;;
53281;SDS011;39167;52.794;6.892;2022-11-13T10:27:14;15.00;;;10.38;;
53281;SDS011;39167;52.794;6.892;2022-11-13T10:29:40;13.38;;;9.98;;
53281;SDS011;39167;52.794;6.892;2022-11-13T10:32:19;14.40;;;10.45;;
53281;SDS011;39167;52.794;6.892;2022-11-13T10:34:53;14.60;;;10.48;;
53281;SDS011;39167;52.794;6.892;2022-11-13T10:40:26;13.40;;;9.70;;
53281;SDS011;39167;52.794;6.892;2022-11-13T10:42:53;13.02;;;9.60;;
53281;SDS011;39167;52.794;6.892;2022-11-13T10:45:28;12.40;;;9.52;;
53281;SDS011;39167;52.794;6.892;2022-11-13T10:47:54;13.23;;;10.13;;
53281;SDS011;39167;52.794;6.892;2022-11-13T10:50:23;12.95;;;10.15;;
53281;SDS011;39167;52.794;6.892;2022-11-13T10:52:52;10.73;;;8.85;;
53281;SDS011;39167;52.794;6.892;2022-11-13T10:55:37;16.35;;;10.25;;
53281;SDS011;39167;52.794;6.892;2022-11-13T10:58:17;15.38;;;10.07;;
53281;SDS011;39167;52.794;6.892;2022-11-13T11:00:44;14.60;;;9.20;;
53281;SDS011;39167;52.794;6.892;2022-11-13T11:03:19;13.00;;;8.90;;
53281;SDS011;39167;52.794;6.892;2022-11-13T11:05:52;11.20;;;8.30;;
53281;SDS011;39167;52.794;6.892;2022-11-13T11:08:21;13.00;;;8.70;;
53281;SDS011;39167;52.794;6.892;2022-11-13T11:11:16;11.95;;;8.30;;
53281;SDS011;39167;52.794;6.892;2022-11-13T11:16:43;15.00;;;8.38;;
53281;SDS011;39167;52.794;6.892;2022-11-13T11:19:11;12.80;;;8.80;;
53281;SDS011;39167;52.794;6.892;2022-11-13T11:21:40;11.23;;;8.30;;
53281;SDS011;39167;52.794;6.892;2022-11-13T11:24:14;13.48;;;8.23;;
53281;SDS011;39167;52.794;6.892;2022-11-13T11:26:53;13.50;;;8.88;;
53281;SDS011;39167;52.794;6.892;2022-11-13T11:29:27;11.25;;;8.50;;
53281;SDS011;39167;52.794;6.892;2022-11-13T11:32:40;11.15;;;8.13;;
53281;SDS011;39167;52.794;6.892;2022-11-13T11:38:09;9.38;;;6.53;;
53281;SDS011;39167;52.794;6.892;2022-11-13T11:41:01;9.20;;;6.70;;
53281;SDS011;39167;52.794;6.892;2022-11-13T11:46:13;9.30;;;6.47;;
53281;SDS011;39167;52.794;6.892;2022-11-13T11:48:47;9.65;;;6.30;;
53281;SDS011;39167;52.794;6.892;2022-11-13T12:09:55;8.23;;;6.30;;
53281;SDS011;39167;52.794;6.892;2022-11-13T12:23:58;8.40;;;6.00;;
53281;SDS011;39167;52.794;6.892;2022-11-13T12:26:46;9.35;;;6.43;;
53281;SDS011;39167;52.794;6.892;2022-11-13T12:34:53;10.77;;;7.32;;
53281;SDS011;39167;52.794;6.892;2022-11-13T12:40:11;10.13;;;7.25;;
53281;SDS011;39167;52.794;6.892;2022-11-13T12:42:45;8.90;;;6.55;;
53281;SDS011;39167;52.794;6.892;2022-11-13T12:50:38;8.13;;;5.70;;
53281;SDS011;39167;52.794;6.892;2022-11-13T12:53:09;8.30;;;5.95;;
53281;SDS011;39167;52.794;6.892;2022-11-13T12:55:37;8.35;;;6.30;;
53281;SDS011;39167;52.794;6.892;2022-11-13T12:58:06;8.15;;;5.47;;
53281;SDS011;39167;52.794;6.892;2022-11-13T13:00:36;9.85;;;5.97;;
53281;SDS011;39167;52.794;6.892;2022-11-13T13:14:19;8.07;;;6.10;;
53281;SDS011;39167;52.794;6.892;2022-11-13T13:17:03;10.20;;;5.65;;
53281;SDS011;39167;52.794;6.892;2022-11-13T13:19:58;8.02;;;6.20;;
53281;SDS011;39167;52.794;6.892;2022-11-13T13:22:29;7.78;;;5.35;;
53281;SDS011;39167;52.794;6.892;2022-11-13T13:27:29;11.00;;;5.30;;
53281;SDS011;39167;52.794;6.892;2022-11-13T13:30:10;9.18;;;5.90;;
53281;SDS011;39167;52.794;6.892;2022-11-13T13:35:43;7.75;;;5.65;;
53281;SDS011;39167;52.794;6.892;2022-11-13T13:41:21;8.75;;;5.38;;
53281;SDS011;39167;52.794;6.892;2022-11-13T13:44:17;8.85;;;4.30;;
53281;SDS011;39167;52.794;6.892;2022-11-13T13:47:09;7.32;;;5.03;;
53281;SDS011;39167;52.794;6.892;2022-11-13T13:49:46;7.28;;;4.28;;
53281;SDS011;39167;52.794;6.892;2022-11-13T13:52:15;5.70;;;4.03;;
53281;SDS011;39167;52.794;6.892;2022-11-13T13:54:41;7.55;;;4.30;;
53281;SDS011;39167;52.794;6.892;2022-11-13T13:57:11;10.02;;;5.10;;
53281;SDS011;39167;52.794;6.892;2022-11-13T13:59:40;7.47;;;4.68;;
53281;SDS011;39167;52.794;6.892;2022-11-13T14:02:16;6.00;;;4.00;;
53281;SDS011;39167;52.794;6.892;2022-11-13T14:04:45;6.18;;;4.22;;
53281;SDS011;39167;52.794;6.892;2022-11-13T14:07:25;6.53;;;4.00;;
53281;SDS011;39167;52.794;6.892;2022-11-13T14:10:03;7.95;;;4.50;;
53281;SDS011;39167;52.794;6.892;2022-11-13T14:12:41;6.20;;;3.85;;
53281;SDS011;39167;52.794;6.892;2022-11-13T14:15:24;5.53;;;3.65;;
53281;SDS011;39167;52.794;6.892;2022-11-13T14:18:02;5.68;;;3.65;;
53281;SDS011;39167;52.794;6.892;2022-11-13T14:20:34;5.45;;;3.83;;
53281;SDS011;39167;52.794;6.892;2022-11-13T14:23:11;6.55;;;4.45;;
53281;SDS011;39167;52.794;6.892;2022-11-13T14:26:00;5.25;;;3.45;;
53281;SDS011;39167;52.794;6.892;2022-11-13T14:28:30;7.95;;;3.83;;
53281;SDS011;39167;52.794;6.892;2022-11-13T14:31:04;7.45;;;4.10;;
53281;SDS011;39167;52.794;6.892;2022-11-13T14:33:33;9.70;;;4.35;;
53281;SDS011;39167;52.794;6.892;2022-11-13T14:36:02;6.05;;;4.00;;
53281;SDS011;39167;52.794;6.892;2022-11-13T14:38:30;7.72;;;4.35;;
53281;SDS011;39167;52.794;6.892;2022-11-13T14:40:59;5.70;;;3.80;;
53281;SDS011;39167;52.794;6.892;2022-11-13T14:43:30;6.97;;;4.30;;
53281;SDS011;39167;52.794;6.892;2022-11-13T14:45:58;7.10;;;4.47;;
53281;SDS011;39167;52.794;6.892;2022-11-13T14:48:27;6.70;;;4.18;;
53281;SDS011;39167;52.794;6.892;2022-11-13T14:53:25;6.47;;;4.20;;
53281;SDS011;39167;52.794;6.892;2022-11-13T14:55:54;11.00;;;4.57;;
53281;SDS011;39167;52.794;6.892;2022-11-13T14:58:25;7.88;;;4.45;;
53281;SDS011;39167;52.794;6.892;2022-11-13T15:00:57;6.43;;;4.13;;
53281;SDS011;39167;52.794;6.892;2022-11-13T15:03:43;6.90;;;4.40;;
53281;SDS011;39167;52.794;6.892;2022-11-13T15:06:13;8.27;;;4.72;;
53281;SDS011;39167;52.794;6.892;2022-11-13T15:08:47;7.35;;;5.00;;
53281;SDS011;39167;52.794;6.892;2022-11-13T15:11:15;6.72;;;4.75;;
53281;SDS011;39167;52.794;6.892;2022-11-13T15:13:42;7.97;;;5.13;;
53281;SDS011;39167;52.794;6.892;2022-11-13T15:16:18;7.78;;;5.13;;
53281;SDS011;39167;52.794;6.892;2022-11-13T15:18:49;7.07;;;5.00;;
53281;SDS011;39167;52.794;6.892;2022-11-13T15:21:21;7.60;;;5.28;;
53281;SDS011;39167;52.794;6.892;2022-11-13T15:23:47;8.10;;;5.63;;
53281;SDS011;39167;52.794;6.892;2022-11-13T15:26:13;6.93;;;5.60;;
53281;SDS011;39167;52.794;6.892;2022-11-13T15:28:39;12.20;;;7.97;;
53281;SDS011;39167;52.794;6.892;2022-11-13T15:31:11;12.70;;;9.43;;
53281;SDS011;39167;52.794;6.892;2022-11-13T15:33:53;10.40;;;7.95;;
53281;SDS011;39167;52.794;6.892;2022-11-13T15:36:19;11.25;;;7.72;;
53281;SDS011;39167;52.794;6.892;2022-11-13T15:38:45;10.70;;;7.40;;
53281;SDS011;39167;52.794;6.892;2022-11-13T15:41:12;11.63;;;6.78;;
53281;SDS011;39167;52.794;6.892;2022-11-13T15:43:43;11.65;;;6.72;;
53281;SDS011;39167;52.794;6.892;2022-11-13T15:46:11;8.38;;;6.43;;
53281;SDS011;39167;52.794;6.892;2022-11-13T15:51:18;8.82;;;6.18;;
53281;SDS011;39167;52.794;6.892;2022-11-13T15:56:47;13.10;;;6.25;;
53281;SDS011;39167;52.794;6.892;2022-11-13T15:59:13;9.70;;;5.88;;
53281;SDS011;39167;52.794;6.892;2022-11-13T16:01:39;8.90;;;6.35;;
53281;SDS011;39167;52.794;6.892;2022-11-13T16:04:06;8.95;;;6.50;;
53281;SDS011;39167;52.794;6.892;2022-11-13T16:06:32;9.90;;;6.25;;
53281;SDS011;39167;52.794;6.892;2022-11-13T16:09:00;10.90;;;6.93;;
53281;SDS011;39167;52.794;6.892;2022-11-13T16:11:27;10.63;;;6.03;;
53281;SDS011;39167;52.794;6.892;2022-11-13T16:13:55;10.55;;;6.75;;
53281;SDS011;39167;52.794;6.892;2022-11-13T16:16:21;10.43;;;7.15;;
53281;SDS011;39167;52.794;6.892;2022-11-13T16:18:49;10.88;;;6.47;;
53281;SDS011;39167;52.794;6.892;2022-11-13T16:21:16;9.85;;;6.90;;
53281;SDS011;39167;52.794;6.892;2022-11-13T16:23:43;9.93;;;6.80;;